logo
Search for airport 
image banner adimage banner adimage banner ad
image banner ad

FLIS - Ikaros

Located in Piccadilly Circus, Zambia

ICAO - , IATA -

Data provided by Airmate  

General information

Coordinates: S13°52'59" E29°22'41"
Elevation is 4023 feet MSL.
Magnetic variation is -4° East
View others Airports in Central Province

Operational data

Special qualification required
Current time UTC:
Current local time:
Weather at : - ( 0 km )
METAR: KUDG 202218Z AUTO 30025G29KT 10SM TSRA BKN065 26/21 A2992 RMK AO2 PK WND 30029/2218 LTG DSNT ALQDS TSB07RAB11 PRESRR P0000
View NOTAMs / SUP AIP / TFR affecting this airport [VIEW]
Communications frequencies: [VIEW]

Runways:

RWY identifierQFULength (ft)Width (ft)SurfaceLDA (ft)
30298°3464106GRAS
12118°3464106GRAS

Airport contact information

Address: Piccadilly Circus Zambia

Satellite view of FLIS